createdAt,value
2022-12-14T00:00:44.406Z,102103.72
2022-12-14T00:03:13.865Z,102106.59
2022-12-14T00:05:43.262Z,102099.84
2022-12-14T00:08:12.754Z,102099.22
2022-12-14T00:10:42.324Z,102107.41
2022-12-14T00:13:16.591Z,102113.00
2022-12-14T00:15:45.054Z,102114.34
2022-12-14T00:18:22.568Z,102118.13
2022-12-14T00:20:54.423Z,102121.81
2022-12-14T00:23:23.265Z,102126.50
2022-12-14T00:25:51.610Z,102131.16
2022-12-14T00:28:19.982Z,102131.22
2022-12-14T00:30:48.500Z,102123.31
2022-12-14T00:33:16.888Z,102124.31
2022-12-14T00:35:45.201Z,102123.41
2022-12-14T00:38:14.070Z,102125.97
2022-12-14T00:40:42.536Z,102130.59
2022-12-14T00:43:10.847Z,102135.38
2022-12-14T00:45:39.370Z,102136.53
2022-12-14T00:48:10.845Z,102147.44
2022-12-14T00:50:39.009Z,102156.50
2022-12-14T00:53:11.468Z,102146.13
2022-12-14T00:55:44.365Z,102154.22
2022-12-14T00:58:21.203Z,102155.13
2022-12-14T01:00:59.364Z,102161.56
2022-12-14T01:03:28.538Z,102155.69
2022-12-14T01:05:57.470Z,102160.38
2022-12-14T01:08:33.685Z,102162.28
2022-12-14T01:11:11.376Z,102159.97
2022-12-14T01:13:49.668Z,102172.78
2022-12-14T01:16:18.904Z,102166.22
2022-12-14T01:25:23.563Z,102171.44
2022-12-14T01:31:18.808Z,102178.22
2022-12-14T01:36:46.818Z,102181.41
2022-12-14T01:39:17.179Z,102177.25
2022-12-14T01:42:51.108Z,102185.41
2022-12-14T01:44:58.956Z,102185.75
2022-12-14T01:47:44.133Z,102190.47
2022-12-14T01:50:33.259Z,102201.22
2022-12-14T01:53:07.654Z,102203.06
2022-12-14T01:55:39.705Z,102196.78
2022-12-14T01:58:19.342Z,102202.88
2022-12-14T02:00:53.799Z,102203.03
2022-12-14T02:03:33.617Z,102206.63
2022-12-14T02:06:07.216Z,102205.97
2022-12-14T02:08:35.859Z,102212.38
2022-12-14T02:11:04.598Z,102217.69
2022-12-14T02:13:36.048Z,102216.63
2022-12-14T02:16:04.542Z,102217.38
2022-12-14T02:18:34.203Z,102211.53
2022-12-14T02:21:23.622Z,102216.13
2022-12-14T02:24:01.897Z,102232.16
2022-12-14T02:26:39.521Z,102230.56
2022-12-14T02:29:40.659Z,102234.38
2022-12-14T02:32:40.152Z,102243.44
2022-12-14T02:35:45.649Z,102246.34
2022-12-14T02:38:29.735Z,102248.13
2022-12-14T02:41:30.286Z,102250.03
2022-12-14T02:44:28.034Z,102249.19
2022-12-14T02:47:03.848Z,102255.47
2022-12-14T02:49:43.254Z,102251.97
2022-12-14T02:52:23.967Z,102253.81
2022-12-14T02:55:02.972Z,102260.88
2022-12-14T02:57:38.505Z,102260.06
2022-12-14T03:00:08.092Z,102264.63
2022-12-14T03:02:42.392Z,102262.09
2022-12-14T03:05:11.979Z,102265.78
2022-12-14T03:07:55.740Z,102262.38
2022-12-14T03:10:38.976Z,102262.38
2022-12-14T03:13:12.593Z,102265.84
2022-12-14T03:15:46.363Z,102271.88
2022-12-14T03:18:18.830Z,102268.19
2022-12-14T03:20:52.353Z,102281.00
2022-12-14T03:23:26.022Z,102283.31
2022-12-14T03:26:47.061Z,102282.91
2022-12-14T03:29:48.929Z,102279.22
2022-12-14T03:32:21.955Z,102275.59
2022-12-14T03:35:13.373Z,102288.66
2022-12-14T03:37:46.732Z,102283.41
2022-12-14T03:40:27.666Z,102281.56
2022-12-14T03:43:19.642Z,102279.72
2022-12-14T03:46:08.427Z,102280.41
2022-12-14T03:48:50.902Z,102281.22
2022-12-14T03:51:21.844Z,102280.16
2022-12-14T03:54:14.287Z,102284.44
2022-12-14T03:56:52.977Z,102288.00
2022-12-14T03:59:28.260Z,102290.56
2022-12-14T04:02:46.968Z,102283.41
2022-12-14T04:05:31.008Z,102289.44
2022-12-14T04:08:26.797Z,102281.16
2022-12-14T04:11:17.085Z,102283.53
2022-12-14T04:14:19.575Z,102279.28
2022-12-14T04:17:10.362Z,102284.69
2022-12-14T04:20:03.539Z,102287.56
2022-12-14T04:22:39.316Z,102285.16
2022-12-14T04:25:49.340Z,102283.50
2022-12-14T04:28:43.985Z,102290.75
2022-12-14T04:31:17.798Z,102291.28
2022-12-14T04:33:53.391Z,102290.13
2022-12-14T04:36:42.673Z,102290.41
2022-12-14T04:39:21.336Z,102299.53
2022-12-14T04:41:53.420Z,102294.56
2022-12-14T04:44:29.653Z,102291.78
2022-12-14T04:46:59.846Z,102290.91
2022-12-14T04:49:33.481Z,102298.41
2022-12-14T04:52:20.274Z,102300.38
2022-12-14T04:55:23.685Z,102312.09
2022-12-14T04:58:06.834Z,102317.66
2022-12-14T05:00:39.873Z,102322.41
2022-12-14T05:04:12.540Z,102334.72
2022-12-14T05:06:45.560Z,102344.53
2022-12-14T05:09:24.691Z,102347.31
2022-12-14T05:12:16.505Z,102341.22
2022-12-14T05:14:56.862Z,102343.13
2022-12-14T05:17:25.148Z,102346.75
2022-12-14T05:19:55.069Z,102344.22
2022-12-14T05:22:23.311Z,102349.56
2022-12-14T05:24:51.606Z,102347.88
2022-12-14T05:27:21.250Z,102347.91
2022-12-14T05:29:49.434Z,102346.16
2022-12-14T05:32:18.382Z,102344.38
2022-12-14T05:34:46.622Z,102350.53
2022-12-14T05:37:18.206Z,102351.50
2022-12-14T05:39:47.034Z,102356.78
2022-12-14T05:42:15.239Z,102374.34
2022-12-14T05:44:43.762Z,102377.09
2022-12-14T05:47:11.983Z,102373.66
2022-12-14T05:49:40.293Z,102375.50
2022-12-14T05:52:08.755Z,102375.56
2022-12-14T05:54:37.026Z,102381.81
2022-12-14T05:57:06.648Z,102381.03
2022-12-14T05:59:35.247Z,102381.97
2022-12-14T06:02:03.944Z,102380.22
2022-12-14T06:04:32.593Z,102382.00
2022-12-14T06:07:00.967Z,102380.31
2022-12-14T06:09:29.317Z,102377.75
2022-12-14T06:11:57.856Z,102375.22
2022-12-14T06:14:26.254Z,102376.22
2022-12-14T06:16:54.564Z,102385.09
2022-12-14T06:19:22.836Z,102394.84
2022-12-14T06:21:51.171Z,102386.16
2022-12-14T06:24:19.733Z,102386.22
2022-12-14T06:26:48.668Z,102395.06
2022-12-14T06:29:20.440Z,102393.34
2022-12-14T06:31:49.431Z,102396.06
2022-12-14T06:34:23.472Z,102396.09
2022-12-14T06:36:54.756Z,102400.56
2022-12-14T06:39:23.090Z,102415.47
2022-12-14T06:41:52.649Z,102424.25
2022-12-14T06:44:21.067Z,102420.75
2022-12-14T06:46:49.331Z,102420.75
2022-12-14T06:49:18.159Z,102430.47
2022-12-14T06:51:46.447Z,102439.28
2022-12-14T06:54:16.392Z,102435.78
2022-12-14T06:56:46.805Z,102441.94
2022-12-14T06:59:17.853Z,102440.19
2022-12-14T07:01:50.278Z,102444.59
2022-12-14T07:04:21.923Z,102441.13
2022-12-14T07:06:50.665Z,102443.72
2022-12-14T07:09:18.979Z,102440.22
2022-12-14T07:11:47.192Z,102444.69
2022-12-14T07:14:19.051Z,102446.53
2022-12-14T07:16:48.604Z,102454.47
2022-12-14T07:19:18.282Z,102458.94
2022-12-14T07:21:46.501Z,102451.13
2022-12-14T07:24:15.005Z,102455.53
2022-12-14T07:26:43.583Z,102458.16
2022-12-14T07:29:12.892Z,102454.75
2022-12-14T07:31:41.278Z,102457.44
2022-12-14T07:34:13.314Z,102449.63
2022-12-14T07:36:41.735Z,102454.94
2022-12-14T07:39:15.771Z,102455.88
2022-12-14T07:41:45.497Z,102452.41
2022-12-14T07:44:14.270Z,102444.50
2022-12-14T07:46:42.987Z,102446.31
2022-12-14T07:49:11.503Z,102440.19
2022-12-14T07:51:45.119Z,102441.13
2022-12-14T07:54:14.239Z,102437.63
2022-12-14T07:56:44.135Z,102444.69
2022-12-14T07:59:18.540Z,102449.94
2022-12-14T08:01:46.875Z,102447.38
2022-12-14T08:04:18.154Z,102443.00
2022-12-14T08:06:50.763Z,102440.41
2022-12-14T08:09:20.888Z,102440.44
2022-12-14T08:11:49.138Z,102443.13
2022-12-14T08:14:19.824Z,102452.00
2022-12-14T08:16:49.444Z,102452.00
2022-12-14T08:19:18.641Z,102448.53
2022-12-14T08:21:47.020Z,102442.41
2022-12-14T08:24:17.757Z,102451.13
2022-12-14T08:26:49.138Z,102453.75
2022-12-14T08:29:18.582Z,102450.28
2022-12-14T08:31:46.886Z,102452.09
2022-12-14T08:34:17.625Z,102451.28
2022-12-14T08:36:45.828Z,102454.78
2022-12-14T08:39:14.330Z,102459.19
2022-12-14T08:41:42.971Z,102455.66
2022-12-14T08:44:11.979Z,102460.09
2022-12-14T08:46:41.167Z,102455.78
2022-12-14T08:49:09.487Z,102461.09
2022-12-14T08:51:41.269Z,102468.16
2022-12-14T08:54:09.560Z,102471.66
2022-12-14T08:56:37.780Z,102471.69
2022-12-14T08:59:06.064Z,102473.41
2022-12-14T09:01:34.973Z,102480.47
2022-12-14T09:04:08.778Z,102480.50
2022-12-14T09:06:39.590Z,102480.56
2022-12-14T09:09:16.161Z,102478.84
2022-12-14T09:11:46.004Z,102476.28
2022-12-14T09:14:14.323Z,102484.16
2022-12-14T09:16:42.774Z,102482.38
2022-12-14T09:19:11.238Z,102484.13
2022-12-14T09:21:40.669Z,102481.47
2022-12-14T09:24:10.277Z,102474.44
2022-12-14T09:26:39.283Z,102472.66
2022-12-14T09:29:07.595Z,102477.03
2022-12-14T09:31:35.905Z,102477.09
2022-12-14T09:34:04.791Z,102480.66
2022-12-14T09:36:33.001Z,102478.91
2022-12-14T09:39:01.242Z,102482.44
2022-12-14T09:41:36.622Z,102488.59
2022-12-14T09:44:18.108Z,102492.16
2022-12-14T09:46:59.899Z,102489.47
2022-12-14T09:49:48.256Z,102496.44
2022-12-14T09:52:25.139Z,102489.41
2022-12-14T09:54:55.850Z,102491.19
2022-12-14T09:57:27.325Z,102491.22
2022-12-14T09:59:56.160Z,102493.03
2022-12-14T10:02:33.411Z,102491.25
2022-12-14T10:05:49.406Z,102495.69
2022-12-14T10:08:41.944Z,102496.63
2022-12-14T10:11:22.535Z,102494.03
2022-12-14T10:14:44.581Z,102497.56
2022-12-14T10:17:28.261Z,102495.88
2022-12-14T10:20:11.904Z,102488.00
2022-12-14T10:22:46.461Z,102502.00
2022-12-14T10:25:19.649Z,102494.97
2022-12-14T10:28:13.073Z,102492.34
2022-12-14T10:30:45.969Z,102500.22
2022-12-14T10:33:30.423Z,102494.91
2022-12-14T10:36:08.454Z,102497.59
2022-12-14T10:38:42.832Z,102488.00
2022-12-14T10:41:20.292Z,102497.66
2022-12-14T10:44:08.179Z,102486.31
2022-12-14T10:47:02.722Z,102487.25
2022-12-14T10:49:43.187Z,102497.84
2022-12-14T10:52:19.470Z,102497.84
2022-12-14T10:55:14.606Z,102494.34
2022-12-14T10:57:43.161Z,102494.38
2022-12-14T11:00:22.560Z,102497.00
2022-12-14T11:02:55.597Z,102495.25
2022-12-14T11:05:42.190Z,102493.47
2022-12-14T11:08:10.731Z,102494.31
2022-12-14T11:10:42.319Z,102483.78
2022-12-14T11:13:20.158Z,102487.25
2022-12-14T11:15:51.162Z,102487.31
2022-12-14T11:18:20.595Z,102482.94
2022-12-14T11:20:58.161Z,102486.47
2022-12-14T11:23:42.069Z,102482.97
2022-12-14T11:26:36.730Z,102480.41
2022-12-14T11:29:16.853Z,102472.56
2022-12-14T11:31:47.800Z,102473.47
2022-12-14T11:34:22.308Z,102465.63
2022-12-14T11:36:51.114Z,102464.75
2022-12-14T11:39:27.176Z,102465.66
2022-12-14T11:42:05.419Z,102466.50
2022-12-14T11:44:38.489Z,102466.53
2022-12-14T11:47:13.597Z,102458.63
2022-12-14T11:49:41.773Z,102451.63
2022-12-14T11:52:14.098Z,102448.13
2022-12-14T11:55:06.866Z,102448.13
2022-12-14T11:57:50.043Z,102451.63
2022-12-14T12:00:32.959Z,102447.25
2022-12-14T12:03:03.406Z,102449.94
2022-12-14T12:05:40.055Z,102437.63
2022-12-14T12:08:21.654Z,102451.66
2022-12-14T12:10:52.785Z,102444.69
2022-12-14T12:13:28.330Z,102448.25
2022-12-14T12:16:02.797Z,102453.50
2022-12-14T12:18:44.523Z,102456.16
2022-12-14T12:21:17.122Z,102457.84
2022-12-14T12:23:51.514Z,102461.34
2022-12-14T12:26:42.497Z,102471.84
2022-12-14T12:29:22.600Z,102472.66
2022-12-14T12:32:02.500Z,102470.00
2022-12-14T12:34:50.636Z,102475.31
2022-12-14T12:37:57.133Z,102479.75
2022-12-14T12:40:38.640Z,102473.63
2022-12-14T12:43:34.755Z,102469.25
2022-12-14T12:46:20.234Z,102486.81
2022-12-14T12:49:03.774Z,102481.56
2022-12-14T12:51:47.715Z,102476.31
2022-12-14T12:54:34.689Z,102479.81
2022-12-14T12:57:05.598Z,102472.00
2022-12-14T12:59:46.223Z,102486.88
2022-12-14T13:02:50.366Z,102482.50
2022-12-14T13:08:33.056Z,102478.19
2022-12-14T13:11:37.899Z,102474.75
2022-12-14T13:14:39.559Z,102475.63
2022-12-14T13:17:24.524Z,102483.47
2022-12-14T13:19:58.717Z,102478.06
2022-12-14T13:22:42.226Z,102473.69
2022-12-14T13:25:19.295Z,102475.50
2022-12-14T13:28:01.910Z,102469.41
2022-12-14T13:30:51.534Z,102471.91
2022-12-14T13:33:57.700Z,102479.66
2022-12-14T13:36:37.966Z,102479.53
2022-12-14T13:39:12.344Z,102487.44
2022-12-14T13:41:52.755Z,102484.03
2022-12-14T13:44:53.841Z,102489.34
2022-12-14T13:47:27.331Z,102488.47
2022-12-14T13:50:34.836Z,102497.19
2022-12-14T13:53:31.586Z,102491.97
2022-12-14T13:56:02.316Z,102485.84
2022-12-14T13:58:49.016Z,102491.94
2022-12-14T14:01:49.367Z,102495.56
2022-12-14T14:04:24.077Z,102496.63
2022-12-14T14:06:54.759Z,102504.56
2022-12-14T14:09:35.175Z,102509.88
2022-12-14T14:12:26.285Z,102510.78
2022-12-14T14:15:09.655Z,102509.13
2022-12-14T14:17:37.851Z,102526.66
2022-12-14T14:20:45.898Z,102522.31
2022-12-14T14:23:16.919Z,102521.44
2022-12-14T14:25:52.638Z,102522.31
2022-12-14T14:28:27.377Z,102523.16
2022-12-14T14:31:00.596Z,102532.72
2022-12-14T14:33:49.402Z,102537.84
2022-12-14T14:36:34.025Z,102543.03
2022-12-14T14:39:38.417Z,102545.59
2022-12-14T14:41:57.574Z,102554.31
2022-12-14T14:44:37.945Z,102563.91
2022-12-14T14:47:20.269Z,102561.31
2022-12-14T14:49:55.755Z,102555.25
2022-12-14T14:52:42.464Z,102556.22
2022-12-14T14:55:54.441Z,102557.16
2022-12-14T14:58:39.441Z,102547.56
2022-12-14T15:01:07.684Z,102544.91
2022-12-14T15:03:53.324Z,102550.94
2022-12-14T15:06:42.951Z,102550.91
2022-12-14T15:09:12.061Z,102555.22
2022-12-14T15:11:48.810Z,102556.03
2022-12-14T15:14:21.705Z,102556.91
2022-12-14T15:16:50.151Z,102556.81
2022-12-14T15:19:24.337Z,102552.38
2022-12-14T15:21:58.237Z,102554.09
2022-12-14T15:24:27.431Z,102559.38
2022-12-14T15:26:56.056Z,102558.50
2022-12-14T15:29:29.070Z,102559.38
2022-12-14T15:32:01.336Z,102557.59
2022-12-14T15:34:29.905Z,102552.34
2022-12-14T15:36:58.662Z,102566.34
2022-12-14T15:39:42.956Z,102567.22
2022-12-14T15:42:18.730Z,102573.28
2022-12-14T15:44:52.760Z,102582.84
2022-12-14T15:47:32.063Z,102573.19
2022-12-14T15:50:24.879Z,102576.66
2022-12-14T15:52:56.481Z,102570.47
2022-12-14T15:55:29.137Z,102572.22
2022-12-14T15:57:58.116Z,102580.06
2022-12-14T16:00:27.050Z,102576.53
2022-12-14T16:02:55.830Z,102581.75
2022-12-14T16:05:24.538Z,102580.81
2022-12-14T16:07:58.511Z,102581.63
2022-12-14T16:10:33.891Z,102585.09
2022-12-14T16:13:08.322Z,102593.75
2022-12-14T16:15:37.818Z,102598.84
2022-12-14T16:18:06.267Z,102606.56
2022-12-14T16:20:38.798Z,102603.72
2022-12-14T16:23:15.884Z,102614.00
2022-12-14T16:25:57.206Z,102612.00
2022-12-14T16:28:35.039Z,102606.47
2022-12-14T16:31:14.783Z,102606.25
2022-12-14T16:33:44.581Z,102618.38
2022-12-14T16:36:33.962Z,102616.38
2022-12-14T16:39:23.269Z,102605.59
2022-12-14T16:41:59.332Z,102615.75
2022-12-14T16:44:30.970Z,102624.41
2022-12-14T16:47:04.944Z,102626.09
2022-12-14T16:49:34.213Z,102624.88
2022-12-14T16:52:16.147Z,102628.09
2022-12-14T16:54:44.751Z,102629.66
2022-12-14T16:57:26.840Z,102629.50
2022-12-14T17:00:00.820Z,102635.44
2022-12-14T17:03:01.825Z,102633.34
2022-12-14T17:05:50.859Z,102632.09
2022-12-14T17:08:20.507Z,102634.31
2022-12-14T17:10:49.088Z,102647.06
2022-12-14T17:13:17.813Z,102636.00
2022-12-14T17:15:59.616Z,102646.19
2022-12-14T17:18:38.773Z,102650.28
2022-12-14T17:21:09.073Z,102648.03
2022-12-14T17:23:39.929Z,102651.06
2022-12-14T17:26:14.048Z,102643.34
2022-12-14T17:28:43.012Z,102650.59
2022-12-14T17:31:12.671Z,102648.16
2022-12-14T17:33:41.098Z,102653.66
2022-12-14T17:36:09.905Z,102658.09
2022-12-14T17:38:38.272Z,102666.00
2022-12-14T17:41:07.983Z,102657.22
2022-12-14T17:43:36.410Z,102669.44
2022-12-14T17:46:04.868Z,102678.06
2022-12-14T17:48:33.210Z,102673.41
2022-12-14T17:51:02.237Z,102671.38
2022-12-14T17:53:31.752Z,102673.81
2022-12-14T17:56:00.198Z,102681.56
2022-12-14T17:58:37.894Z,102681.09
2022-12-14T18:01:08.351Z,102678.03
2022-12-14T18:03:37.173Z,102674.38
2022-12-14T18:06:06.065Z,102676.16
2022-12-14T18:08:34.707Z,102678.97
2022-12-14T18:11:13.381Z,102676.31
2022-12-14T18:16:30.725Z,102667.72
2022-12-14T18:19:39.910Z,102668.53
2022-12-14T18:22:15.060Z,102664.84
2022-12-14T18:24:49.257Z,102656.88
2022-12-14T18:27:18.057Z,102663.00
2022-12-14T18:29:57.030Z,102659.75
2022-12-14T18:32:32.155Z,102663.59
2022-12-14T18:35:12.249Z,102655.69
2022-12-14T18:43:44.418Z,102640.13
2022-12-14T18:46:14.975Z,102640.81
2022-12-14T18:48:44.651Z,102636.31
2022-12-14T18:51:29.805Z,102640.50
2022-12-14T18:54:01.717Z,102634.16
2022-12-14T18:56:32.399Z,102625.56
2022-12-14T19:02:01.217Z,102630.69
2022-12-14T19:24:02.328Z,102585.69
2022-12-14T19:27:07.719Z,102588.38
2022-12-14T19:33:04.953Z,102565.28
2022-12-14T19:35:28.300Z,102571.09
2022-12-14T19:42:56.473Z,102549.13
2022-12-14T19:46:03.879Z,102552.41
2022-12-14T19:52:06.659Z,102538.19
2022-12-14T19:55:07.046Z,102535.31
2022-12-14T19:58:08.756Z,102542.66
2022-12-14T20:04:11.151Z,102511.72
2022-12-14T20:07:00.915Z,102504.56
2022-12-14T20:10:00.281Z,102498.72
2022-12-14T20:15:30.345Z,102495.22
2022-12-14T20:18:07.803Z,102501.16
2022-12-14T20:20:36.829Z,102502.59
2022-12-14T20:23:07.572Z,102492.63
2022-12-14T20:28:20.794Z,102493.06
2022-12-14T20:30:52.902Z,102495.66
2022-12-14T20:33:31.172Z,102495.38
2022-12-14T20:36:00.162Z,102493.81
2022-12-14T20:38:33.625Z,102495.75
2022-12-14T20:41:30.724Z,102486.16
2022-12-14T20:51:33.847Z,102467.38
2022-12-14T20:54:34.004Z,102466.91
2022-12-14T21:00:31.917Z,102448.81
2022-12-14T21:06:30.943Z,102457.19
2022-12-14T21:14:36.831Z,102444.88
2022-12-14T21:17:34.003Z,102435.34
2022-12-14T21:25:30.377Z,102440.13
2022-12-14T21:28:05.501Z,102437.53
2022-12-14T21:30:35.392Z,102424.09
2022-12-14T21:33:05.433Z,102429.47
2022-12-14T21:35:33.682Z,102430.53
2022-12-14T21:38:02.457Z,102419.22
2022-12-14T21:40:49.703Z,102429.88
2022-12-14T21:43:28.259Z,102419.16
2022-12-14T21:45:59.747Z,102426.22
2022-12-14T21:48:28.065Z,102420.09
2022-12-14T21:50:56.471Z,102429.81
2022-12-14T21:53:25.966Z,102424.41
2022-12-14T21:56:16.906Z,102424.41
2022-12-14T21:58:48.549Z,102426.28
2022-12-14T22:01:21.548Z,102426.38
2022-12-14T22:03:54.277Z,102432.75
2022-12-14T22:06:30.824Z,102426.81
2022-12-14T22:09:28.817Z,102423.34
2022-12-14T22:12:00.156Z,102421.69
2022-12-14T22:14:31.646Z,102414.69
2022-12-14T22:16:59.840Z,102418.34
2022-12-14T22:19:31.222Z,102420.06
2022-12-14T22:22:03.940Z,102428.00
2022-12-14T22:24:32.369Z,102419.94
2022-12-14T22:27:01.100Z,102422.72
2022-12-14T22:29:29.995Z,102412.09
2022-12-14T22:31:59.287Z,102407.53
2022-12-14T22:37:02.090Z,102400.25
2022-12-14T22:39:30.713Z,102400.00
2022-12-14T22:42:02.153Z,102401.59
2022-12-14T22:44:30.104Z,102403.19
2022-12-14T22:46:59.004Z,102398.75
2022-12-14T22:49:30.262Z,102400.72
2022-12-14T22:52:01.504Z,102400.94
2022-12-14T22:54:31.713Z,102403.66
2022-12-14T22:57:03.694Z,102404.59
2022-12-14T22:59:42.760Z,102408.03
2022-12-14T23:02:16.962Z,102405.34
2022-12-14T23:04:50.394Z,102406.66
2022-12-14T23:07:19.029Z,102401.13
2022-12-14T23:10:08.289Z,102406.44
2022-12-14T23:12:54.886Z,102410.75
2022-12-14T23:15:41.671Z,102417.78
2022-12-14T23:18:28.222Z,102427.31
2022-12-14T23:21:17.698Z,102430.63
2022-12-14T23:24:05.199Z,102418.38
2022-12-14T23:26:53.338Z,102421.47
2022-12-14T23:29:40.221Z,102418.38
2022-12-14T23:32:26.744Z,102424.91
2022-12-14T23:35:14.017Z,102427.75
2022-12-14T23:38:00.696Z,102433.31
2022-12-14T23:40:47.145Z,102434.44
2022-12-14T23:43:37.601Z,102438.34
2022-12-14T23:46:24.699Z,102448.34
2022-12-14T23:49:15.604Z,102439.75
2022-12-14T23:52:03.293Z,102443.53
2022-12-14T23:54:51.307Z,102446.44
2022-12-14T23:57:38.093Z,102441.38
